Flight Track Log - Related Links

Times and Time Zones

All times are in EDT time to prevent confusion due to time zone crossing. See the AWE795 flight status page for this flight to view local times or setup timezone preferences in your user account.

Time Position Orientation Groundspeed Altitude Reporting Facility
EDT Latitude Longitude Course Direction KTS MPH feet Rate Location/Type
Sat 09:15:51 PM 39.8667 -75.2667 264° West 153 176 900  Level Philadelphia TRACON
Sat 09:17:03 PM 39.8333 -75.3333 237° Southwest 204 235 3,200 1,957 Climbing Philadelphia TRACON
Sat 09:18:00 PM 39.7340 -75.4653 237° Southwest  Level FlightAware Approximate
Sat 09:18:09 PM 39.7833 -75.4167 232° Southwest 253 291 5,400  Level Philadelphia TRACON
Sat 09:19:00 PM 39.7002 -75.5441 232° Southwest  Level FlightAware Approximate
Sat 09:19:03 PM 39.7500 -75.4833 237° Southwest 266 306 7,800  Level Philadelphia TRACON
Sat 09:20:00 PM 39.6645 -75.6260 264° West  Level FlightAware Approximate
Sat 09:20:03 PM 39.7000 -75.5667 232° Southwest 283 326 10,000  Level Philadelphia TRACON
Sat 09:21:00 PM 39.6565 -75.7225 264° West  Level FlightAware Approximate
Sat 09:21:03 PM 39.6667 -75.6667 247° West 346 398 10,000  Level Philadelphia TRACON
Sat 09:21:57 PM 39.6500 -75.7833 260° West 329 379 10,000  Level Philadelphia TRACON
Sat 09:24:30 PM 39.6167 -76.0667 261° West 333 383 10,000  Level Potomac TRACON
Sat 09:25:30 PM 39.6000 -76.1833 260° West 331 381 10,000  Level Potomac TRACON
Sat 09:26:36 PM 39.5167 -76.2833 223° Southwest 334 384 10,000  Level Potomac TRACON
Sat 09:27:36 PM 39.4500 -76.3667 224° Southwest 332 382 10,000  Level Potomac TRACON
Sat 09:28:24 PM 39.4000 -76.4167 218° Southwest 332 382 10,000  Level Potomac TRACON
Sat 09:29:36 PM 39.3167 -76.5167 223° Southwest 331 381 10,000  Level Potomac TRACON
Sat 09:30:36 PM 39.2500 -76.5833 218° Southwest 330 380 10,000  Level Potomac TRACON
Sat 09:31:30 PM 39.1833 -76.6500 218° Southwest 335 386 10,000  Level Potomac TRACON
Sat 09:32:24 PM 39.1500 -76.7500 247° West 330 380 10,000  Level Potomac TRACON
Sat 09:33:18 PM 39.1167 -76.8500 247° West 310 357 10,000 -1,000 Level Potomac TRACON
Sat 09:34:30 PM 39.0833 -76.9500 247° West 280 322 7,900 -1,857 Descending Potomac TRACON
Sat 09:35:24 PM 39.0500 -77.0333 243° Southwest 266 306 6,100 -1,950 Descending Potomac TRACON
Sat 09:36:30 PM 39.0333 -77.1333 258° West 246 283 4,000 -1,909 Descending Potomac TRACON

Login

Don't have an account? Register now (free) for customized features, flight alerts, and more!